D/T METAR WX W/DIR W/SPE G/SPE TEMP DEWP
16/01/19 02:50 EGOM 160250Z AUTO 24020KT 9999 BKN004/// BKN040/// 07/06 Q0998 WSW (240°) 23.0mph 7°C 6°C
16/01/19 01:50 EGOM 160150Z AUTO 23023KT 9999 BKN008/// BKN041/// 07/06 Q0999 RERA SW (230°) 26.5mph 7°C 6°C
16/01/19 00:50 EGOM 160050Z AUTO 24021KT 8000 -RA BKN003/// 07/06 Q1001 -RA WSW (240°) 24.2mph 7°C 6°C
15/01/19 23:50 EGOM 152350Z AUTO 24022KT 9999 BKN007/// SCT015/// 07/06 Q1001 REDZ WSW (240°) 25.3mph 7°C 6°C
15/01/19 22:50 EGOM 152250Z AUTO 24021KT 9999 BKN003/// SCT032/// 07/06 Q1002 RERA WSW (240°) 24.2mph 7°C 6°C
15/01/19 21:50 EGOM 152150Z AUTO 24025KT 9999 -RA BKN003/// 07/06 Q1003 -RA WSW (240°) 28.8mph 7°C 6°C
15/01/19 20:50 EGOM 152050Z AUTO 24022KT 9000 BR BKN003/// 07/06 Q1004 RERA BR WSW (240°) 25.3mph 7°C 6°C
15/01/19 19:50 EGOM 151950Z AUTO 24024KT 9999 RA OVC003/// 06/06 Q1004 RA WSW (240°) 27.6mph 6°C 6°C
15/01/19 18:50 EGOM 151850Z AUTO 25023KT 9999 -RA BKN001/// BKN010/// 06/06 Q1005 -RA WSW (250°) 26.5mph 6°C 6°C
15/01/19 17:50 EGOM 151750Z AUTO 24022G32KT 7000 BR OVC002/// 06/06 Q1006 RERA BR WSW (240°) 25.3mph 36.8mph 6°C 6°C
15/01/19 16:50 EGOM 151650Z AUTO 25022KT 8000 HZ BKN007/// SCT015/// 06/05 Q1007 HZ WSW (250°) 25.3mph 6°C 5°C
15/01/19 16:01 EGOM 151601Z 26020KT 9999 BKN008 BKN037 06/05 Q1007 GRN W (260°) 23.0mph 6°C 5°C
15/01/19 15:01 EGOM 151501Z 26025G35KT 9999 SCT036 06/04 Q1007 BLU W (260°) 28.8mph 40.3mph 6°C 4°C
15/01/19 13:50 EGOM 151350Z 26027G37KT 9999 FEW016 SCT039 07/05 Q1008 BLU W (260°) 31.1mph 42.6mph 7°C 5°C
15/01/19 12:50 EGOM 151250Z 25024KT 9999 FEW008 BKN040 07/06 Q1009 BLU WSW (250°) 27.6mph 7°C 6°C
15/01/19 11:50 EGOM 151150Z 25022KT 9999 BKN005 07/06 Q1010 YLO1 WSW (250°) 25.3mph 7°C 6°C
15/01/19 10:50 EGOM 151050Z 25019KT 9999 2500W OVC003 06/06 Q1011 YLO2 WSW (250°) 21.9mph 6°C 6°C
15/01/19 09:50 EGOM 150950Z 25018KT 6000 3000W BR OVC003 06/06 Q1011 YLO2 BR WSW (250°) 20.7mph 6°C 6°C
15/01/19 08:50 EGOM 150850Z 25019KT 3000 BR OVC003 06/06 Q1011 YLO2 BR WSW (250°) 21.9mph 6°C 6°C
15/01/19 07:50 EGOM 150750Z AUTO 25020G31KT 8000 BR OVC002/// 06/06 Q1011 BR WSW (250°) 23.0mph 35.7mph 6°C 6°C
15/01/19 06:50 EGOM 150650Z AUTO 25020G30KT 7000 BR OVC001/// 06/06 Q1011 BR WSW (250°) 23.0mph 34.5mph 6°C 6°C
15/01/19 05:50 EGOM 150550Z AUTO 26019KT 6000 BR OVC001/// 06/06 Q1011 BR W (260°) 21.9mph 6°C 6°C
15/01/19 04:50 EGOM 150450Z AUTO 25018G29KT 5000 BR OVC001/// 06/06 Q1012 BR WSW (250°) 20.7mph 33.4mph 6°C 6°C
15/01/19 03:50 EGOM 150350Z AUTO 25022KT 9000 BR OVC002/// 06/06 Q1012 BR WSW (250°) 25.3mph 6°C 6°C
15/01/19 02:50 EGOM 150250Z AUTO 26022KT 7000 OVC001/// 06/06 Q1013 W (260°) 25.3mph 6°C 6°C
15/01/19 01:50 EGOM 150150Z AUTO 26022G34KT 3800 BR OVC001/// 06/06 Q1013 BR W (260°) 25.3mph 39.1mph 6°C 6°C
15/01/19 00:50 EGOM 150050Z AUTO 25022KT 5000 BR OVC001/// 06/06 Q1013 RERA BR WSW (250°) 25.3mph 6°C 6°C
14/01/19 23:50 EGOM 142350Z AUTO 25022KT 0400 FG OVC001/// 06/06 Q1014 FG WSW (250°) 25.3mph 6°C 6°C
14/01/19 22:50 EGOM 142250Z AUTO 25019KT 0250 -DZ OVC001/// 05/05 Q1015 -DZ WSW (250°) 21.9mph 5°C 5°C
14/01/19 21:50 EGOM 142150Z AUTO 25018KT 9999 OVC004/// 05/05 Q1015 WSW (250°) 20.7mph 5°C 5°C
14/01/19 20:50 EGOM 142050Z AUTO 25015KT 9999 BKN005/// BKN014/// 05/04 Q1016 WSW (250°) 17.3mph 5°C 4°C
14/01/19 19:50 EGOM 141950Z AUTO 25014KT 9999 BKN004/// 05/04 Q1016 WSW (250°) 16.1mph 5°C 4°C
14/01/19 18:50 EGOM 141850Z AUTO 25016KT 9999 BKN004/// BKN011/// 05/04 Q1016 WSW (250°) 18.4mph 5°C 4°C
14/01/19 17:50 EGOM 141750Z AUTO 24011KT 9000 BR BKN003/// BKN021/// 04/04 Q1017 BR WSW (240°) 12.7mph 4°C 4°C
14/01/19 16:50 EGOM 141650Z AUTO 24008KT 9999 FEW009/// SCT016/// BKN020/// 04/03 Q1017 WSW (240°) 9.2mph 4°C 3°C
14/01/19 15:50 EGOM 141550Z AUTO 25010KT 9999 FEW008/// SCT017/// 04/03 Q1017 RERA WSW (250°) 11.5mph 4°C 3°C
14/01/19 15:03 EGOM 141503Z 26009KT 9999 FEW012 SCT042 05/04 Q1017 BLU W (260°) 10.4mph 5°C 4°C
14/01/19 13:50 EGOM 141350Z 26009KT 9999 FEW010 SCT023 05/04 Q1017 WHT W (260°) 10.4mph 5°C 4°C
14/01/19 12:50 EGOM 141250Z 26008KT 9999 BKN008 SCT180 05/04 Q1018 GRN W (260°) 9.2mph 5°C 4°C
14/01/19 11:50 EGOM 141150Z AUTO 27007KT 9999 FEW032/// 05/03 Q1018 W (270°) 8.1mph 5°C 3°C
14/01/19 10:50 EGOM 141050Z 28005KT 9999 FEW027 BKN110 04/02 Q1018 BLU W (280°) 5.8mph 4°C 2°C
14/01/19 09:50 EGOM 140950Z 29004KT CAVOK 02/02 Q1018 BLU WNW (290°) 4.6mph 2°C 2°C
14/01/19 08:50 EGOM 140850Z 29006KT CAVOK 02/01 Q1017 BLU WNW (290°) 6.9mph 2°C 1°C
14/01/19 07:50 EGOM 140750Z AUTO 28007KT 9999 BKN130/// BKN160/// 02/01 Q1016 RERA W (280°) 8.1mph 2°C 1°C
14/01/19 06:50 EGOM 140650Z AUTO 29009KT 9999 -RA FEW029/// SCT035/// BKN160/// 03/02 Q1016 -RA WNW (290°) 10.4mph 3°C 2°C
14/01/19 05:50 EGOM 140550Z AUTO 28010KT 9999 FEW035/// BKN160/// 02/02 Q1015 REUP W (280°) 11.5mph 2°C 2°C
14/01/19 04:50 EGOM 140450Z AUTO 28011KT 9999 BKN044/// 03/02 Q1014 W (280°) 12.7mph 3°C 2°C
14/01/19 03:50 EGOM 140350Z AUTO 28011KT 9999 SCT039/// BKN170/// 02/01 Q1014 W (280°) 12.7mph 2°C 1°C
14/01/19 02:50 EGOM 140250Z AUTO 28012KT 9999 BKN170/// 02/02 Q1013 W (280°) 13.8mph 2°C 2°C
14/01/19 01:50 EGOM 140150Z AUTO 27016KT 9999 NCD 03/02 Q1012 W (270°) 18.4mph 3°C 2°C
14/01/19 00:50 EGOM 140050Z AUTO 26011KT 9999 SCT025/// 03/02 Q1012 W (260°) 12.7mph 3°C 2°C
13/01/19 23:50 EGOM 132350Z AUTO 27012KT 9999 FEW025/// 03/01 Q1010 W (270°) 13.8mph 3°C 1°C
13/01/19 22:50 EGOM 132250Z AUTO 28014KT 9999 SCT025/// 05/02 Q1010 W (280°) 16.1mph 5°C 2°C
13/01/19 21:50 EGOM 132150Z AUTO 28016KT 9999 SCT024/// 05/02 Q1009 W (280°) 18.4mph 5°C 2°C
13/01/19 20:50 EGOM 132050Z AUTO 29018KT 9999 FEW021/// BKN025/// 05/02 Q1008 WNW (290°) 20.7mph 5°C 2°C
13/01/19 19:50 EGOM 131950Z AUTO 29015KT 9999 SCT025/// 05/02 Q1007 WNW (290°) 17.3mph 5°C 2°C
13/01/19 18:50 EGOM 131850Z AUTO 29021KT 9999 BKN022/// BKN030/// 05/02 Q1006 WNW (290°) 24.2mph 5°C 2°C
13/01/19 17:50 EGOM 131750Z AUTO 29021G32KT 9999 BKN021/// SCT031/// 06/03 Q1006 WNW (290°) 24.2mph 36.8mph 6°C 3°C
13/01/19 16:50 EGOM 131650Z AUTO 28020KT 9999 BKN023/// 06/03 Q1005 W (280°) 23.0mph 6°C 3°C
13/01/19 15:50 EGOM 131550Z AUTO 28021KT 9999 BKN024/// BKN034/// 06/03 Q1005 W (280°) 24.2mph 6°C 3°C
13/01/19 14:50 EGOM 131450Z AUTO 28023G33KT 9999 BKN025/// 06/03 Q1005 W (280°) 26.5mph 38.0mph 6°C 3°C
13/01/19 13:50 EGOM 131350Z AUTO 28019KT 9999 BKN026/// SCT032/// 07/03 Q1005 W (280°) 21.9mph 7°C 3°C
13/01/19 12:50 EGOM 131250Z AUTO 29023KT 9999 BKN026/// BKN035/// 08/04 Q1005 WNW (290°) 26.5mph 8°C 4°C
13/01/19 11:50 EGOM 131150Z AUTO 28025G36KT 9999 BKN022/// SCT030/// 08/05 Q1005 W (280°) 28.8mph 41.4mph 8°C 5°C
13/01/19 10:50 EGOM 131050Z AUTO 27024KT 9999 BKN021/// SCT030/// 08/06 Q1006 W (270°) 27.6mph 8°C 6°C
13/01/19 09:50 EGOM 130950Z AUTO 28022KT 9999 SCT003/// SCT017/// 08/07 Q1006 REDZ W (280°) 25.3mph 8°C 7°C
13/01/19 08:50 EGOM 130850Z AUTO 25021G31KT 9999 BKN003/// BKN011/// BKN014/// 08/08 Q1007 RERA WSW (250°) 24.2mph 35.7mph 8°C 8°C
13/01/19 07:50 EGOM 130750Z AUTO 26021KT 9999 -DZ OVC002/// 07/07 Q1007 -DZ W (260°) 24.2mph 7°C 7°C
13/01/19 06:50 EGOM 130650Z AUTO 26020KT 2000 BR OVC002/// 07/07 Q1007 RERA BR W (260°) 23.0mph 7°C 7°C
13/01/19 05:50 EGOM 130550Z AUTO 25024G34KT 0300 -RA VV/// 07/07 Q1008 -RA WSW (250°) 27.6mph 39.1mph 7°C 7°C
13/01/19 04:50 EGOM 130450Z AUTO 26022G32KT 0400 -RA VV/// 07/07 Q1009 -RA W (260°) 25.3mph 36.8mph 7°C 7°C
13/01/19 03:50 EGOM 130350Z AUTO 26026KT 0650 -RA OVC002/// 07/07 Q1009 -RA W (260°) 29.9mph 7°C 7°C
13/01/19 02:50 EGOM 130250Z AUTO 25029G39KT 1500 -RA OVC001/// 07/07 Q1009 -RA WSW (250°) 33.4mph 44.9mph 7°C 7°C
13/01/19 01:50 EGOM 130150Z AUTO 26025G35KT 7000 BR OVC001/// 07/07 Q1010 RERA BR W (260°) 28.8mph 40.3mph 7°C 7°C
13/01/19 00:50 EGOM 130050Z AUTO 26030G40KT 2100 -DZ BKN002/// 07/07 Q1011 -DZ W (260°) 34.5mph 46.0mph 7°C 7°C
12/01/19 23:50 EGOM 122350Z AUTO 25017KT 8000 OVC002/// 08/08 Q1011 WSW (250°) 19.6mph 8°C 8°C
12/01/19 22:50 EGOM 122250Z AUTO 25020KT 0350 FG OVC001/// 08/08 Q1012 FG WSW (250°) 23.0mph 8°C 8°C
12/01/19 21:50 EGOM 122150Z AUTO 25022KT 2800 BR OVC002/// 08/08 Q1012 RERA BR WSW (250°) 25.3mph 8°C 8°C
12/01/19 20:50 EGOM 122050Z AUTO 26019KT 0350 -DZ VV/// 08/08 Q1013 -DZ W (260°) 21.9mph 8°C 8°C
12/01/19 19:50 EGOM 121950Z AUTO 26018KT 0800 FG OVC002/// 08/08 Q1013 FG W (260°) 20.7mph 8°C 8°C
12/01/19 18:50 EGOM 121850Z AUTO 27022KT 4100 OVC002/// 08/08 Q1013 W (270°) 25.3mph 8°C 8°C
12/01/19 17:50 EGOM 121750Z AUTO 26018KT 0800 BCFG OVC002/// 08/08 Q1013 BCFG W (260°) 20.7mph 8°C 8°C
12/01/19 16:50 EGOM 121650Z AUTO 26022KT 1100 -RA OVC002/// 07/07 Q1013 -RA W (260°) 25.3mph 7°C 7°C
12/01/19 15:50 EGOM 121550Z AUTO 25022KT 0300 -RA VV/// 06/06 Q1012 -RA WSW (250°) 25.3mph 6°C 6°C
12/01/19 14:50 EGOM 121450Z AUTO 26022KT 0350 -RA VV/// 06/06 Q1013 -RA W (260°) 25.3mph 6°C 6°C
12/01/19 13:50 EGOM 121350Z AUTO 26022KT 7000 BR SCT005/// BKN080/// 06/06 Q1013 BR W (260°) 25.3mph 6°C 6°C
12/01/19 12:50 EGOM 121250Z AUTO 26020KT 9999 FEW003/// BKN011/// 06/06 Q1014 W (260°) 23.0mph 6°C 6°C
12/01/19 11:50 EGOM 121150Z AUTO 26020KT 9999 FEW005/// BKN016/// 06/06 Q1015 W (260°) 23.0mph 6°C 6°C
12/01/19 10:50 EGOM 121050Z AUTO 26015KT 9999 BKN014/// BKN023/// 06/05 Q1016 W (260°) 17.3mph 6°C 5°C
12/01/19 09:50 EGOM 120950Z AUTO 26016KT 9999 FEW004/// BKN011/// 06/05 Q1016 RERA W (260°) 18.4mph 6°C 5°C
12/01/19 08:50 EGOM 120850Z AUTO 26017KT 9999 FEW003/// BKN020/// 06/05 Q1016 W (260°) 19.6mph 6°C 5°C
12/01/19 07:50 EGOM 120750Z AUTO 26016KT 9999 SCT002/// BKN023/// 06/05 Q1016 RERA W (260°) 18.4mph 6°C 5°C
12/01/19 06:50 EGOM 120650Z AUTO 26020KT 5000 -DZ SCT002/// SCT010/// 06/06 Q1016 -DZ W (260°) 23.0mph 6°C 6°C
12/01/19 05:50 EGOM 120550Z AUTO 27021KT 9000 -DZ BKN002/// 06/06 Q1016 -DZ W (270°) 24.2mph 6°C 6°C
12/01/19 04:50 EGOM 120450Z AUTO 26022KT 9999 BKN001/// BKN015/// 06/06 Q1016 RERA W (260°) 25.3mph 6°C 6°C
12/01/19 03:50 EGOM 120350Z AUTO 26022KT 8000 BR BKN002/// BKN010/// 06/06 Q1017 RERA BR W (260°) 25.3mph 6°C 6°C
12/01/19 02:50 EGOM 120250Z AUTO 26026KT 1700 -RA OVC001/// 07/07 Q1017 -RA W (260°) 29.9mph 7°C 7°C
12/01/19 01:50 EGOM 120150Z AUTO 25024G34KT 1100 -RA BKN001/// 06/06 Q1018 -RA WSW (250°) 27.6mph 39.1mph 6°C 6°C
12/01/19 00:50 EGOM 120050Z AUTO 25024G34KT 0200 -RA VV/// 06/06 Q1019 -RA WSW (250°) 27.6mph 39.1mph 6°C 6°C
11/01/19 23:50 EGOM 112350Z AUTO 26022KT 0250 -DZ VV/// 06/06 Q1020 -DZ W (260°) 25.3mph 6°C 6°C
11/01/19 22:50 EGOM 112250Z AUTO 25020KT 0300 FG OVC001/// 06/06 Q1021 FG WSW (250°) 23.0mph 6°C 6°C
11/01/19 21:50 EGOM 112150Z AUTO 25021KT 0200 FG VV/// 06/06 Q1022 FG WSW (250°) 24.2mph 6°C 6°C
11/01/19 20:50 EGOM 112050Z AUTO 25017KT 0350 FG VV/// 06/06 Q1024 FG WSW (250°) 19.6mph 6°C 6°C
11/01/19 19:50 EGOM 111950Z AUTO 26017KT 2700 -DZ OVC001/// 06/06 Q1025 -DZ W (260°) 19.6mph 6°C 6°C
11/01/19 18:50 EGOM 111850Z AUTO 25013KT 2600 BKN001/// BKN029/// 06/06 Q1025 WSW (250°) 15.0mph 6°C 6°C
11/01/19 17:50 EGOM 111750Z AUTO 26014KT 0450 FG VV/// 06/06 Q1026 FG W (260°) 16.1mph 6°C 6°C
11/01/19 16:50 EGOM 111650Z AUTO 25013KT 0400 FG BKN001/// BKN028/// 06/06 Q1026 FG WSW (250°) 15.0mph 6°C 6°C
11/01/19 15:50 EGOM 111550Z AUTO 28006KT 9999 FEW020/// OVC025/// 05/05 Q1027 W (280°) 6.9mph 5°C 5°C
11/01/19 14:50 EGOM 111450Z AUTO 27008KT 9999 OVC025/// 05/05 Q1027 W (270°) 9.2mph 5°C 5°C
11/01/19 13:50 EGOM 111350Z AUTO 26008KT 9999 OVC026/// 05/05 Q1027 W (260°) 9.2mph 5°C 5°C
11/01/19 12:50 EGOM 111250Z AUTO 26006KT 9999 FEW002/// BKN023/// 05/05 Q1028 W (260°) 6.9mph 5°C 5°C
11/01/19 11:50 EGOM 111150Z AUTO 27005KT 9999 OVC018/// 05/05 Q1029 W (270°) 5.8mph 5°C 5°C
11/01/19 10:50 EGOM 111050Z 28006KT 9999 OVC020 05/05 Q1029 WHT W (280°) 6.9mph 5°C 5°C
11/01/19 09:50 EGOM 110950Z 28005KT 9999 2000W BKN019 04/04 Q1029 YLO2 W (280°) 5.8mph 4°C 4°C
11/01/19 08:50 EGOM 110850Z 28006KT 1500 BR BKN019 04/04 Q1029 AMB BR W (280°) 6.9mph 4°C 4°C
11/01/19 07:50 EGOM 110750Z AUTO 31003KT 4000 OVC016/// 04/04 Q1029 NW (310°) 3.5mph 4°C 4°C
11/01/19 06:50 EGOM 110650Z AUTO 27005KT 3500 FEW001/// OVC018/// 04/04 Q1029 W (270°) 5.8mph 4°C 4°C
11/01/19 05:50 EGOM 110550Z AUTO 24005KT 1600 FEW001/// OVC020/// 04/04 Q1029 WSW (240°) 5.8mph 4°C 4°C
11/01/19 04:50 EGOM 110450Z AUTO 26005KT 1300 FEW001/// OVC022/// 03/03 Q1029 W (260°) 5.8mph 3°C 3°C
11/01/19 03:50 EGOM 110350Z AUTO 26008KT 0450 FG SCT001/// BKN028/// 03/03 Q1029 FG W (260°) 9.2mph 3°C 3°C
11/01/19 02:50 EGOM 110250Z AUTO 25008KT 0750 FG OVC030/// 03/03 Q1029 FG WSW (250°) 9.2mph 3°C 3°C
11/01/19 01:50 EGOM 110150Z AUTO 26007KT 1700 BKN029/// 03/03 Q1029 W (260°) 8.1mph 3°C 3°C
11/01/19 00:50 EGOM 110050Z AUTO 25007KT 0650 FG BKN033/// SCT039/// 03/03 Q1029 FG WSW (250°) 8.1mph 3°C 3°C
10/01/19 23:50 EGOM 102350Z AUTO 25005KT 3500 BKN039/// 03/02 Q1029 WSW (250°) 5.8mph 3°C 2°C
10/01/19 22:50 EGOM 102250Z AUTO 29004KT 1200 BR OVC040/// 03/03 Q1029 BR WNW (290°) 4.6mph 3°C 3°C
10/01/19 21:50 EGOM 102150Z AUTO 30006KT 9999 OVC042/// 04/04 Q1029 WNW (300°) 6.9mph 4°C 4°C
10/01/19 20:50 EGOM 102050Z AUTO 26006KT 0900 FG OVC040/// 04/04 Q1029 FG W (260°) 6.9mph 4°C 4°C
10/01/19 19:50 EGOM 101950Z AUTO 25005KT 1600 OVC039/// 04/04 Q1029 WSW (250°) 5.8mph 4°C 4°C
10/01/19 18:50 EGOM 101850Z AUTO 26004KT 0500 FG SCT001/// BKN040/// 03/03 Q1029 FG W (260°) 4.6mph 3°C 3°C
10/01/19 17:50 EGOM 101750Z AUTO 27009KT 0250 -SN OVC044/// 03/03 Q1029 -SN W (270°) 10.4mph 3°C 3°C
10/01/19 16:50 EGOM 101650Z AUTO 26008KT 0200 UP BKN001/// BKN048/// 03/03 Q1028 UP W (260°) 9.2mph 3°C 3°C
10/01/19 15:50 EGOM 101550Z AUTO 28006KT 0200 FG VV/// 04/04 Q1028 FG W (280°) 6.9mph 4°C 4°C
10/01/19 14:50 EGOM 101450Z AUTO 25005KT 0250 FG VV/// 04/04 Q1028 FG WSW (250°) 5.8mph 4°C 4°C
10/01/19 13:50 EGOM 101350Z 24006KT 0200 FG VV/// 04/04 Q1028 RED FG WSW (240°) 6.9mph 4°C 4°C
10/01/19 12:50 EGOM 101250Z 27007KT 0200 FG VV/// 04/04 Q1029 RED FG W (270°) 8.1mph 4°C 4°C
10/01/19 11:50 EGOM 101150Z 27011KT 0150 FG VV/// 04/04 Q1029 RED FG W (270°) 12.7mph 4°C 4°C
10/01/19 10:50 EGOM 101050Z 27012KT 0150 FG VV/// 03/03 Q1029 RED FG W (270°) 13.8mph 3°C 3°C
10/01/19 09:50 EGOM 100950Z 26008KT 0100 FG VV/// 03/03 Q1029 RED FG W (260°) 9.2mph 3°C 3°C
10/01/19 08:50 EGOM 100850Z 26007KT 0100 FG VV/// 02/02 Q1029 RED FG W (260°) 8.1mph 2°C 2°C
10/01/19 07:50 EGOM 100750Z AUTO 26009KT 0150 SG VV/// 02/02 Q1029 SG W (260°) 10.4mph 2°C 2°C
10/01/19 06:50 EGOM 100650Z AUTO 26008KT 0250 FG VV/// 02/02 Q1029 FG W (260°) 9.2mph 2°C 2°C
10/01/19 05:50 EGOM 100550Z AUTO 27011KT 0650 FG OVC002/// 02/01 Q1029 FG W (270°) 12.7mph 2°C 1°C
10/01/19 04:50 EGOM 100450Z AUTO 27010KT 8000 BR OVC003/// 01/01 Q1029 BR W (270°) 11.5mph 1°C 1°C
10/01/19 03:50 EGOM 100350Z AUTO 26009KT 9999 OVC003/// 01/00 Q1029 W (260°) 10.4mph 1°C 0°C